createdAt,value
2019-01-19T00:01:15.093Z,32.73
2019-01-19T00:04:14.947Z,37.65
2019-01-19T00:06:52.746Z,29.60
2019-01-19T00:09:50.693Z,29.25
2019-01-19T00:12:38.163Z,25.35
2019-01-19T00:15:10.521Z,24.72
2019-01-19T00:17:48.705Z,29.92
2019-01-19T00:20:21.074Z,25.35
2019-01-19T00:22:59.050Z,26.85
2019-01-19T00:26:04.518Z,26.73
2019-01-19T00:28:39.830Z,25.43
2019-01-19T00:31:14.838Z,25.90
2019-01-19T00:33:58.931Z,26.77
2019-01-19T00:36:34.528Z,29.60
2019-01-19T00:39:09.869Z,29.00
2019-01-19T00:42:15.431Z,27.85
2019-01-19T00:45:04.469Z,25.35
2019-01-19T00:47:39.631Z,22.80
2019-01-19T00:50:14.939Z,29.35
2019-01-19T00:52:47.298Z,25.05
2019-01-19T00:55:24.961Z,24.92
2019-01-19T00:58:03.547Z,21.82
2019-01-19T01:00:41.538Z,23.90
2019-01-19T01:03:22.489Z,29.50
2019-01-19T01:06:00.427Z,29.92
2019-01-19T01:08:55.747Z,28.38
2019-01-19T01:11:37.172Z,35.92
2019-01-19T01:14:12.682Z,27.70
2019-01-19T01:16:45.055Z,25.82
2019-01-19T01:19:20.694Z,24.90
2019-01-19T01:22:02.793Z,27.52
2019-01-19T01:24:35.163Z,24.30
2019-01-19T01:27:14.311Z,27.87
2019-01-19T01:30:05.212Z,24.05
2019-01-19T01:32:43.253Z,25.23
2019-01-19T01:35:32.562Z,24.15
2019-01-19T01:38:10.840Z,24.92
2019-01-19T01:41:11.627Z,28.30
2019-01-19T01:43:49.539Z,26.23
2019-01-19T01:46:27.941Z,24.95
2019-01-19T01:49:00.314Z,27.27
2019-01-19T01:51:35.363Z,27.58
2019-01-19T01:54:14.095Z,24.75
2019-01-19T01:56:43.387Z,24.95
2019-01-19T01:59:18.911Z,29.35
2019-01-19T02:01:57.136Z,24.07
2019-01-19T02:04:52.239Z,27.93
2019-01-19T02:07:35.958Z,22.82
2019-01-19T02:10:32.559Z,23.83
2019-01-19T02:13:04.923Z,30.77
2019-01-19T02:15:52.325Z,24.37
2019-01-19T02:18:39.953Z,28.80
2019-01-19T02:21:24.615Z,27.35
2019-01-19T02:24:11.940Z,20.68
2019-01-19T02:26:56.451Z,23.02
2019-01-19T02:29:43.697Z,20.55
2019-01-19T02:32:24.962Z,26.05
2019-01-19T02:35:02.504Z,24.43
2019-01-19T02:37:35.105Z,24.40
2019-01-19T02:40:19.747Z,21.37
2019-01-19T02:42:55.055Z,25.23
2019-01-19T02:45:57.159Z,20.17
2019-01-19T02:48:38.011Z,25.43
2019-01-19T02:51:19.495Z,24.43
2019-01-19T02:54:10.416Z,23.35
2019-01-19T02:57:05.692Z,25.45
2019-01-19T02:59:40.837Z,22.32
2019-01-19T03:02:19.232Z,21.95
2019-01-19T03:04:54.296Z,20.97
2019-01-19T03:07:32.236Z,20.10
2019-01-19T03:10:04.899Z,18.23
2019-01-19T03:13:05.880Z,20.65
2019-01-19T03:15:44.206Z,20.57
2019-01-19T03:18:25.561Z,18.20
2019-01-19T03:21:16.206Z,18.75
2019-01-19T03:24:00.892Z,21.20
2019-01-19T03:26:39.274Z,21.87
2019-01-19T03:29:11.880Z,16.55
2019-01-19T03:31:47.325Z,19.12
2019-01-19T03:34:37.796Z,19.45
2019-01-19T03:37:25.354Z,16.55
2019-01-19T03:40:15.985Z,17.62
2019-01-19T03:43:00.075Z,16.85
2019-01-19T03:45:57.657Z,20.43
2019-01-19T03:49:03.495Z,16.60
2019-01-19T03:51:35.854Z,17.20
2019-01-19T03:54:17.031Z,13.30
2019-01-19T03:56:52.050Z,20.52
2019-01-19T03:59:45.541Z,17.52
2019-01-19T04:02:37.245Z,17.80
2019-01-19T04:05:18.850Z,19.12
2019-01-19T04:08:06.525Z,17.62
2019-01-19T04:11:03.370Z,22.30
2019-01-19T04:13:44.634Z,13.95
2019-01-19T04:16:37.537Z,18.75
2019-01-19T04:19:18.849Z,14.13
2019-01-19T04:22:03.138Z,18.92
2019-01-19T04:24:35.472Z,15.28
2019-01-19T04:27:04.758Z,15.13
2019-01-19T04:29:34.038Z,15.83
2019-01-19T04:32:03.620Z,12.80
2019-01-19T04:34:33.062Z,13.55
2019-01-19T04:37:02.731Z,14.47
2019-01-19T04:39:33.084Z,12.73
2019-01-19T04:42:02.871Z,16.50
2019-01-19T04:44:32.494Z,16.15
2019-01-19T04:47:01.775Z,15.30
2019-01-19T04:49:31.387Z,11.12
2019-01-19T04:52:00.670Z,13.83
2019-01-19T04:54:30.296Z,16.57
2019-01-19T04:56:59.606Z,14.47
2019-01-19T04:59:29.203Z,11.35
2019-01-19T05:01:58.812Z,15.25
2019-01-19T05:04:28.096Z,15.18
2019-01-19T05:06:57.394Z,14.75
2019-01-19T05:09:26.665Z,10.95
2019-01-19T05:11:56.228Z,9.78
2019-01-19T05:14:25.508Z,13.28
2019-01-19T05:16:55.128Z,10.35
2019-01-19T05:19:24.408Z,16.32
2019-01-19T05:21:53.775Z,15.63
2019-01-19T05:24:23.071Z,11.95
2019-01-19T05:26:52.333Z,12.93
2019-01-19T05:29:21.639Z,16.60
2019-01-19T05:31:51.239Z,13.62
2019-01-19T05:34:20.846Z,17.98
2019-01-19T05:36:50.128Z,14.93
2019-01-19T05:39:19.754Z,10.80
2019-01-19T05:41:49.042Z,11.85
2019-01-19T05:44:18.663Z,15.25
2019-01-19T05:46:47.942Z,10.78
2019-01-19T05:49:17.590Z,15.18
2019-01-19T05:51:46.845Z,13.48
2019-01-19T05:54:16.139Z,14.78
2019-01-19T05:56:45.421Z,12.35
2019-01-19T05:59:14.722Z,14.23
2019-01-19T06:01:44.287Z,12.53
2019-01-19T06:04:13.576Z,15.43
2019-01-19T06:06:46.883Z,11.38
2019-01-19T06:09:13.841Z,17.73
2019-01-19T06:11:43.135Z,11.73
2019-01-19T06:14:12.419Z,10.80
2019-01-19T06:16:41.704Z,11.12
2019-01-19T06:19:11.641Z,11.95
2019-01-19T06:21:42.194Z,12.13
2019-01-19T06:24:11.494Z,14.58
2019-01-19T06:26:41.753Z,11.95
2019-01-19T06:29:11.044Z,13.90
2019-01-19T06:31:40.605Z,10.50
2019-01-19T06:34:10.207Z,14.45
2019-01-19T06:36:39.494Z,26.62
2019-01-19T06:39:09.945Z,40.80
2019-01-19T06:41:39.217Z,45.48
2019-01-19T06:44:08.526Z,23.05
2019-01-19T06:46:37.819Z,12.55
2019-01-19T06:49:07.346Z,12.35
2019-01-19T06:51:36.952Z,13.10
2019-01-19T06:54:06.609Z,17.52
2019-01-19T06:56:35.906Z,9.75
2019-01-19T06:59:05.183Z,10.68
2019-01-19T07:01:34.772Z,13.75
2019-01-19T07:04:04.386Z,10.43
2019-01-19T07:06:33.682Z,17.02
2019-01-19T07:09:03.932Z,13.22
2019-01-19T07:11:33.825Z,10.72
2019-01-19T07:14:03.101Z,9.93
2019-01-19T07:16:32.394Z,11.40
2019-01-19T07:19:01.922Z,8.73
2019-01-19T07:21:31.214Z,11.55
2019-01-19T07:24:00.494Z,9.10
2019-01-19T07:26:29.796Z,10.72
2019-01-19T07:28:59.335Z,11.12
2019-01-19T07:31:28.627Z,9.15
2019-01-19T07:33:57.914Z,9.58
2019-01-19T07:36:27.205Z,13.38
2019-01-19T07:38:56.736Z,9.75
2019-01-19T07:41:26.026Z,8.30
2019-01-19T07:43:55.305Z,14.85
2019-01-19T07:46:26.479Z,8.15
2019-01-19T07:48:55.766Z,12.28
2019-01-19T07:51:25.773Z,9.95
2019-01-19T07:53:55.033Z,12.85
2019-01-19T07:56:24.953Z,11.57
2019-01-19T07:58:54.262Z,8.10
2019-01-19T08:01:23.624Z,6.42
2019-01-19T08:03:52.908Z,10.10
2019-01-19T08:06:22.193Z,5.83
2019-01-19T08:08:51.732Z,12.50
2019-01-19T08:11:21.013Z,8.28
2019-01-19T08:13:50.281Z,7.25
2019-01-19T08:16:19.563Z,8.35
2019-01-19T08:18:48.843Z,9.60
2019-01-19T08:21:18.132Z,15.30
2019-01-19T08:23:47.418Z,10.70
2019-01-19T08:26:16.719Z,7.37
2019-01-19T08:28:46.339Z,10.32
2019-01-19T08:31:15.619Z,14.10
2019-01-19T08:33:44.910Z,12.65
2019-01-19T08:36:14.559Z,14.10
2019-01-19T08:38:44.163Z,8.23
2019-01-19T08:41:13.490Z,6.87
2019-01-19T08:43:44.413Z,9.03
2019-01-19T08:46:13.702Z,9.95
2019-01-19T08:48:42.992Z,5.80
2019-01-19T08:51:12.270Z,9.43
2019-01-19T08:53:41.810Z,8.63
2019-01-19T08:56:11.093Z,10.38
2019-01-19T08:58:40.706Z,7.12
2019-01-19T09:01:10.526Z,8.58
2019-01-19T09:03:39.798Z,7.03
2019-01-19T09:06:09.078Z,7.12
2019-01-19T09:08:38.354Z,9.08
2019-01-19T09:11:07.690Z,7.37
2019-01-19T09:13:36.979Z,7.78
2019-01-19T09:16:07.490Z,5.62
2019-01-19T09:18:36.769Z,9.20
2019-01-19T09:21:06.060Z,6.62
2019-01-19T09:23:36.969Z,10.13
2019-01-19T09:26:06.249Z,7.50
2019-01-19T09:28:35.527Z,10.85
2019-01-19T09:31:05.099Z,6.12
2019-01-19T09:33:34.815Z,11.38
2019-01-19T09:36:04.417Z,9.45
2019-01-19T09:38:33.702Z,8.58
2019-01-19T09:41:02.979Z,8.55
2019-01-19T09:43:32.261Z,7.53
2019-01-19T09:46:01.532Z,8.43
2019-01-19T09:48:31.137Z,8.60
2019-01-19T09:51:00.424Z,8.83
2019-01-19T09:53:29.705Z,6.10
2019-01-19T09:55:59.252Z,7.95
2019-01-19T09:58:28.544Z,7.83
2019-01-19T10:00:57.815Z,9.45
2019-01-19T10:03:27.103Z,6.37
2019-01-19T10:05:56.371Z,6.85
2019-01-19T10:08:25.952Z,5.53
2019-01-19T10:10:55.658Z,6.90
2019-01-19T10:13:25.177Z,6.75
2019-01-19T10:15:54.770Z,7.35
2019-01-19T10:18:24.321Z,8.93
2019-01-19T10:20:54.091Z,5.87
2019-01-19T10:23:23.386Z,7.85
2019-01-19T10:25:52.656Z,18.92
2019-01-19T10:28:21.937Z,9.40
2019-01-19T10:30:51.583Z,16.73
2019-01-19T10:33:22.034Z,8.25
2019-01-19T10:35:51.308Z,5.50
2019-01-19T10:38:20.579Z,7.25
2019-01-19T10:40:49.858Z,7.47
2019-01-19T10:43:19.125Z,6.25
2019-01-19T10:45:48.731Z,5.78
2019-01-19T10:48:17.996Z,7.15
2019-01-19T10:50:47.286Z,5.65
2019-01-19T10:53:16.556Z,9.28
2019-01-19T10:55:46.142Z,5.60
2019-01-19T10:58:15.414Z,8.40
2019-01-19T11:00:44.689Z,9.83
2019-01-19T11:03:14.259Z,8.10
2019-01-19T11:05:43.543Z,8.08
2019-01-19T11:08:13.784Z,7.70
2019-01-19T11:10:43.061Z,7.35
2019-01-19T11:13:12.573Z,4.40
2019-01-19T11:15:42.182Z,5.22
2019-01-19T11:18:11.685Z,6.30
2019-01-19T11:20:41.307Z,6.00
2019-01-19T11:23:10.589Z,6.20
2019-01-19T11:25:40.221Z,5.00
2019-01-19T11:28:09.813Z,6.33
2019-01-19T11:30:39.115Z,4.90
2019-01-19T11:33:08.723Z,5.55
2019-01-19T11:35:37.994Z,6.37
2019-01-19T11:38:11.895Z,7.37
2019-01-19T11:40:38.607Z,7.70
2019-01-19T11:43:08.609Z,6.00
2019-01-19T11:45:38.301Z,4.97
2019-01-19T11:48:08.007Z,7.95
2019-01-19T11:50:37.463Z,5.55
2019-01-19T11:53:06.756Z,10.60
2019-01-19T11:55:36.162Z,7.22
2019-01-19T11:58:05.536Z,7.10
2019-01-19T12:00:39.386Z,5.97
2019-01-19T12:03:08.763Z,5.97
2019-01-19T12:05:39.516Z,5.97
2019-01-19T12:08:09.692Z,8.15
2019-01-19T12:10:38.957Z,5.15
2019-01-19T12:13:08.309Z,6.05
2019-01-19T12:15:37.578Z,6.12
2019-01-19T12:18:07.300Z,5.67
2019-01-19T12:20:38.923Z,8.50
2019-01-19T12:23:08.948Z,8.28
2019-01-19T12:25:38.224Z,5.80
2019-01-19T12:28:07.507Z,4.65
2019-01-19T12:30:36.764Z,7.05
2019-01-19T12:33:06.590Z,7.62
2019-01-19T12:35:36.404Z,5.72
2019-01-19T12:38:05.883Z,5.87
2019-01-19T12:40:35.408Z,5.25
2019-01-19T12:43:10.918Z,5.50
2019-01-19T12:45:51.842Z,8.90
2019-01-19T12:48:21.127Z,6.85
2019-01-19T12:50:50.392Z,7.20
2019-01-19T12:53:20.966Z,6.33
2019-01-19T12:55:50.573Z,5.95
2019-01-19T12:58:19.911Z,5.47
2019-01-19T13:00:49.478Z,5.62
2019-01-19T13:03:19.087Z,8.18
2019-01-19T13:06:03.745Z,5.62
2019-01-19T13:08:34.477Z,6.70
2019-01-19T13:11:17.324Z,5.17
2019-01-19T13:13:47.769Z,6.42
2019-01-19T13:16:36.387Z,4.17
2019-01-19T13:19:23.823Z,7.42
2019-01-19T13:22:11.139Z,3.52
2019-01-19T13:25:06.395Z,4.60
2019-01-19T13:27:44.649Z,4.97
2019-01-19T13:30:32.181Z,4.22
2019-01-19T13:33:22.682Z,5.47
2019-01-19T13:36:01.399Z,7.08
2019-01-19T13:38:42.279Z,6.20
2019-01-19T13:41:41.978Z,6.42
2019-01-19T13:44:36.620Z,6.12
2019-01-19T13:47:23.804Z,4.80
2019-01-19T13:50:21.320Z,5.15
2019-01-19T13:53:05.819Z,8.55
2019-01-19T13:55:40.922Z,16.15
2019-01-19T13:58:19.181Z,46.30
2019-01-19T14:00:54.299Z,10.93
2019-01-19T14:03:35.614Z,5.55
2019-01-19T14:06:13.262Z,13.75
2019-01-19T14:09:13.203Z,8.28
2019-01-19T14:12:04.909Z,5.97
2019-01-19T14:15:12.733Z,8.78
2019-01-19T14:18:13.841Z,5.28
2019-01-19T14:21:01.094Z,8.85
2019-01-19T14:23:33.606Z,4.75
2019-01-19T14:26:11.999Z,4.87
2019-01-19T14:29:02.492Z,5.15
2019-01-19T14:31:37.827Z,5.05
2019-01-19T14:34:12.883Z,4.85
2019-01-19T14:37:00.469Z,8.58
2019-01-19T14:39:38.229Z,5.25
2019-01-19T14:42:13.547Z,4.70
2019-01-19T14:44:45.902Z,4.10
2019-01-19T14:47:26.995Z,3.55
2019-01-19T14:50:02.390Z,5.45
2019-01-19T14:52:53.348Z,6.83
2019-01-19T14:55:42.276Z,6.00
2019-01-19T14:58:20.542Z,4.75
2019-01-19T15:00:55.861Z,4.62
2019-01-19T15:03:35.159Z,6.30
2019-01-19T15:06:25.886Z,6.83
2019-01-19T15:09:04.007Z,4.20
2019-01-19T15:11:52.022Z,5.72
2019-01-19T15:14:30.371Z,4.28
2019-01-19T15:17:19.454Z,6.85
2019-01-19T15:19:57.387Z,4.53
2019-01-19T15:22:47.863Z,3.65
2019-01-19T15:25:44.343Z,6.12
2019-01-19T15:28:33.198Z,5.05
2019-01-19T15:31:20.855Z,4.55
2019-01-19T15:33:55.882Z,4.53
2019-01-19T15:36:37.100Z,4.15
2019-01-19T15:39:15.774Z,5.22
2019-01-19T15:41:48.355Z,5.50
2019-01-19T15:44:42.850Z,4.97
2019-01-19T15:47:18.319Z,9.45
2019-01-19T15:50:24.130Z,10.28
2019-01-19T15:53:04.806Z,8.25
2019-01-19T15:55:46.297Z,7.80
2019-01-19T15:58:30.654Z,4.62
2019-01-19T16:01:09.019Z,6.58
2019-01-19T16:03:50.141Z,6.20
2019-01-19T16:06:22.577Z,4.50
2019-01-19T16:09:18.331Z,5.42
2019-01-19T16:12:12.946Z,11.15
2019-01-19T16:15:02.108Z,7.45
2019-01-19T16:17:37.126Z,10.25
2019-01-19T16:20:41.578Z,12.68
2019-01-19T16:23:36.466Z,6.05
2019-01-19T16:26:17.566Z,5.97
2019-01-19T16:29:17.163Z,7.10
2019-01-19T16:31:49.852Z,11.28
2019-01-19T16:34:46.716Z,7.05
2019-01-19T16:37:22.135Z,7.90
2019-01-19T16:39:57.046Z,6.83
2019-01-19T16:42:52.849Z,6.78
2019-01-19T16:45:30.957Z,7.00
2019-01-19T16:48:09.039Z,5.67
2019-01-19T16:50:49.738Z,7.17
2019-01-19T16:53:46.476Z,13.75
2019-01-19T16:56:30.991Z,6.17
2019-01-19T16:59:15.212Z,7.28
2019-01-19T17:02:04.018Z,5.97
2019-01-19T17:04:39.169Z,9.30
2019-01-19T17:07:17.494Z,10.30
2019-01-19T17:09:52.780Z,12.65
2019-01-19T17:12:51.970Z,10.72
2019-01-19T17:16:00.782Z,34.18
2019-01-19T17:18:50.623Z,67.97
2019-01-19T17:21:43.477Z,19.90
2019-01-19T17:24:21.791Z,29.95
2019-01-19T17:27:03.435Z,9.70
2019-01-19T17:30:00.207Z,8.63
2019-01-19T17:32:49.021Z,10.25
2019-01-19T17:35:21.438Z,8.00
2019-01-19T17:37:59.848Z,5.65
2019-01-19T17:40:47.079Z,6.12
2019-01-19T17:43:22.128Z,7.00
2019-01-19T17:46:00.704Z,8.35
2019-01-19T17:48:42.078Z,9.08
2019-01-19T17:51:17.451Z,6.25
2019-01-19T17:53:56.069Z,7.50
2019-01-19T17:56:43.261Z,6.75
2019-01-19T17:59:21.638Z,8.03
2019-01-19T18:02:08.945Z,7.95
2019-01-19T18:04:47.308Z,7.78
2019-01-19T18:07:31.518Z,9.23
2019-01-19T18:10:09.627Z,7.58
2019-01-19T18:12:53.527Z,7.90
2019-01-19T18:15:48.743Z,8.23
2019-01-19T18:18:26.618Z,9.43
2019-01-19T18:21:16.102Z,8.18
2019-01-19T18:24:00.173Z,8.80
2019-01-19T18:26:43.863Z,9.48
2019-01-19T18:29:16.727Z,7.92
2019-01-19T18:32:04.128Z,7.67
2019-01-19T18:34:39.754Z,7.12
2019-01-19T18:37:38.226Z,9.48
2019-01-19T18:40:37.740Z,10.43
2019-01-19T18:43:45.191Z,7.95
2019-01-19T18:46:29.816Z,10.48
2019-01-19T18:49:22.636Z,11.65
2019-01-19T18:51:56.351Z,16.95
2019-01-19T18:54:41.398Z,10.90
2019-01-19T18:57:30.786Z,9.68
2019-01-19T19:00:08.999Z,7.05
2019-01-19T19:02:44.098Z,11.20
2019-01-19T19:05:22.273Z,8.50
2019-01-19T19:08:03.914Z,7.83
2019-01-19T19:10:48.331Z,8.40
2019-01-19T19:13:26.622Z,9.78
2019-01-19T19:16:11.392Z,8.45
2019-01-19T19:18:55.930Z,6.78
2019-01-19T19:21:28.284Z,8.88
2019-01-19T19:24:09.434Z,8.80
2019-01-19T19:26:47.679Z,8.80
2019-01-19T19:29:26.344Z,8.73
2019-01-19T19:32:13.836Z,9.78
2019-01-19T19:35:15.183Z,10.20
2019-01-19T19:38:02.387Z,7.87
2019-01-19T19:40:34.785Z,7.58
2019-01-19T19:43:25.642Z,8.15
2019-01-19T19:46:01.134Z,8.40
2019-01-19T19:48:45.505Z,6.53
2019-01-19T19:51:34.339Z,9.55
2019-01-19T19:54:03.640Z,7.97
2019-01-19T19:56:31.843Z,8.60
2019-01-19T19:59:01.165Z,8.85
2019-01-19T20:01:30.747Z,9.55
2019-01-19T20:04:00.035Z,9.40
2019-01-19T20:06:29.308Z,7.97
2019-01-19T20:08:58.602Z,9.25
2019-01-19T20:11:27.891Z,7.90
2019-01-19T20:13:57.174Z,8.05
2019-01-19T20:16:26.479Z,10.85
2019-01-19T20:18:56.047Z,5.78
2019-01-19T20:21:25.656Z,7.42
2019-01-19T20:23:54.942Z,10.28
2019-01-19T20:26:24.668Z,7.03
2019-01-19T20:28:54.270Z,8.40
2019-01-19T20:31:23.600Z,8.93
2019-01-19T20:33:53.179Z,7.55
2019-01-19T20:36:22.475Z,10.72
2019-01-19T20:38:51.753Z,8.03
2019-01-19T20:41:21.387Z,6.25
2019-01-19T20:43:50.668Z,7.92
2019-01-19T20:46:19.953Z,5.83
2019-01-19T20:48:49.252Z,8.80
2019-01-19T20:51:18.526Z,7.17
2019-01-19T20:53:47.812Z,5.50
2019-01-19T20:56:17.115Z,10.75
2019-01-19T20:58:46.373Z,9.03
2019-01-19T21:01:15.658Z,9.08
2019-01-19T21:03:44.955Z,5.85
2019-01-19T21:06:14.240Z,7.83
2019-01-19T21:08:43.518Z,6.90
2019-01-19T21:11:12.819Z,6.47
2019-01-19T21:13:42.077Z,8.75
2019-01-19T21:16:11.366Z,8.63
2019-01-19T21:18:41.642Z,7.17
2019-01-19T21:21:10.922Z,7.83
2019-01-19T21:23:41.314Z,7.25
2019-01-19T21:26:10.602Z,6.95
2019-01-19T21:28:39.873Z,6.95
2019-01-19T21:31:09.466Z,7.83
2019-01-19T21:33:39.320Z,8.83
2019-01-19T21:36:08.877Z,10.53
2019-01-19T21:38:38.487Z,8.10
2019-01-19T21:41:07.776Z,8.28
2019-01-19T21:43:37.129Z,8.40
2019-01-19T21:46:06.737Z,8.60
2019-01-19T21:48:36.014Z,7.87
2019-01-19T21:51:05.290Z,6.22
2019-01-19T21:53:34.894Z,7.47
2019-01-19T21:56:04.519Z,9.28
2019-01-19T21:58:34.120Z,9.05
2019-01-19T22:01:03.460Z,7.28
2019-01-19T22:03:32.756Z,6.42
2019-01-19T22:06:02.035Z,8.55
2019-01-19T22:08:31.331Z,5.45
2019-01-19T22:11:01.031Z,9.00
2019-01-19T22:13:30.367Z,6.17
2019-01-19T22:15:59.647Z,6.33
2019-01-19T22:18:28.927Z,6.40
2019-01-19T22:20:58.314Z,4.80
2019-01-19T22:23:27.945Z,7.53
2019-01-19T22:25:57.238Z,9.35
2019-01-19T22:28:26.551Z,6.53
2019-01-19T22:30:55.829Z,7.33
2019-01-19T22:33:25.571Z,9.75
2019-01-19T22:35:54.862Z,7.75
2019-01-19T22:38:24.181Z,6.15
2019-01-19T22:40:53.816Z,7.80
2019-01-19T22:43:23.891Z,6.85
2019-01-19T22:45:53.171Z,4.75
2019-01-19T22:48:22.503Z,6.37
2019-01-19T22:50:51.786Z,8.63
2019-01-19T22:53:21.091Z,7.40
2019-01-19T22:55:50.357Z,5.72
2019-01-19T22:58:19.641Z,6.85
2019-01-19T23:01:02.606Z,7.75
2019-01-19T23:03:33.033Z,7.55
2019-01-19T23:06:02.642Z,6.58
2019-01-19T23:08:32.033Z,8.20
2019-01-19T23:11:01.569Z,7.05
2019-01-19T23:13:32.193Z,7.40
2019-01-19T23:16:01.655Z,5.25
2019-01-19T23:18:31.194Z,6.53
2019-01-19T23:21:00.482Z,6.53
2019-01-19T23:23:29.763Z,5.65
2019-01-19T23:26:00.869Z,5.72
2019-01-19T23:28:30.294Z,5.45
2019-01-19T23:30:59.947Z,6.83
2019-01-19T23:33:29.284Z,8.88
2019-01-19T23:35:58.812Z,5.92
2019-01-19T23:38:28.078Z,8.78
2019-01-19T23:40:57.382Z,8.20
2019-01-19T23:43:26.654Z,7.20
2019-01-19T23:45:55.954Z,5.12
2019-01-19T23:48:25.234Z,8.98
2019-01-19T23:50:54.514Z,7.72
2019-01-19T23:53:24.069Z,5.90
2019-01-19T23:55:53.363Z,6.30
2019-01-19T23:58:22.635Z,4.25
